Ricouno — 9GPM — position and weather

sailwx.info

Track history (hours):
 
Tides and Currents Weather Stations Pressure Air Temp Water Temp Dewpoint Dewpoint Depression Visibility Wind Speed Wind Dir Waves Ship Positions

Ricouno

Last reported at 2017-Nov-18 15:52 UTC. Time now 2017-Nov-21 04:27 UTC.
Position N 05°16' W 000°05'.

Type: Fishing. MMSI: 627720000.

Date/timePositionNaut miles runAvg speedWind from/ knotsBaromVisibWave heightAir tempDewpointWater temp
2017-Nov-18 15:52N 05°16' W 000°05'3 9.5
2017-Nov-18 15:31N 05°19' W 000°05'5 9.3
2017-Nov-18 15:01N 05°24' W 000°03'5 9.3
2017-Nov-18 14:30N 05°28' W 000°02'5 9.3
2017-Nov-18 14:01N 05°33' W 000°00'5 9.2
2017-Nov-18 13:30N 05°37' E 000°02'0 0.8
2017-Nov-18 13:00N 05°37' E 000°02'0 0.0
2017-Nov-18 12:31N 05°37' E 000°02'0 0.0
2017-Nov-18 12:01N 05°37' E 000°02'0 0.0
2017-Nov-18 11:31N 05°37' E 000°02'0 0.0
2017-Nov-18 11:01N 05°37' E 000°02'0 0.0
2017-Nov-18 10:31N 05°37' E 000°02'0 0.0
2017-Nov-18 10:00N 05°37' E 000°02'0 0.0
2017-Nov-18 09:31N 05°37' E 000°02'4 8.4
2017-Nov-18 09:01N 05°38' E 000°06'4 7.4
2017-Nov-18 08:31N 05°41' E 000°09'1 1.0
2017-Nov-18 08:00N 05°41' E 000°08'0 0.5
2017-Nov-18 07:31N 05°41' E 000°08'3 6.0
2017-Nov-18 07:01N 05°39' E 000°05'0 0.7
2017-Nov-18 06:30N 05°39' E 000°05'0 0.8
2017-Nov-18 06:01N 05°39' E 000°05'2 3.1
2017-Nov-18 05:31N 05°39' E 000°07'2 4.3
2017-Nov-18 05:00N 05°39' E 000°09'0 0.0
2017-Nov-18 04:30N 05°39' E 000°09'0 0.0
2017-Nov-18 04:01N 05°39' E 000°09'0 0.0
2017-Nov-18 03:31N 05°39' E 000°09'0 0.0
2017-Nov-18 03:01N 05°39' E 000°09'0 0.0
2017-Nov-18 02:31N 05°39' E 000°09'0 0.0
2017-Nov-18 02:01N 05°39' E 000°09'0 0.0
2017-Nov-18 01:30N 05°39' E 000°09'0 0.0
2017-Nov-18 01:01N 05°39' E 000°09'0 0.0
2017-Nov-18 00:31N 05°39' E 000°09'0 0.0
2017-Nov-18 00:01N 05°39' E 000°09'0 0.0
2017-Nov-17 23:31N 05°39' E 000°09'0 0.0
2017-Nov-17 23:01N 05°39' E 000°09'0 0.6
2017-Nov-17 22:31N 05°39' E 000°09'6 9.6
2017-Nov-17 21:53N 05°37' E 000°15'  
2017-Nov-15 13:09N 05°24' E 000°21'210.8
2017-Nov-15 12:58N 05°24' E 000°19'510.8
2017-Nov-15 12:30N 05°24' E 000°14'510.9
2017-Nov-15 12:01N 05°23' E 000°09'510.9
2017-Nov-15 11:30N 05°23' E 000°03'610.9
2017-Nov-15 11:00N 05°22' W 000°02'610.8
2017-Nov-15 10:29N 05°22' W 000°08'6 0.4
2017-Nov-14 17:52N 05°26' W 000°12'3 9.3
2017-Nov-14 17:31N 05°27' W 000°09'5 9.2
2017-Nov-14 17:00N 05°31' W 000°05'4 8.9
2017-Nov-14 16:31N 05°33' W 000°02'4 9.0
2017-Nov-14 16:01N 05°37' E 000°01'1 1.4
2017-Nov-14 15:30N 05°37' E 000°02'0 0.0
2017-Nov-14 15:00N 05°37' E 000°02'0 0.0
2017-Nov-14 14:31N 05°37' E 000°02'0 0.0
2017-Nov-14 14:00N 05°37' E 000°02'0 0.0
2017-Nov-14 13:30N 05°37' E 000°02'0 0.0
2017-Nov-14 13:01N 05°37' E 000°02'0 0.3
2017-Nov-14 12:31N 05°37' E 000°02'3 5.5
2017-Nov-14 12:00N 05°36' E 000°04'5 9.7
2017-Nov-14 11:30N 05°32' E 000°07'5 9.5
2017-Nov-14 11:01N 05°28' E 000°10'5 9.6
2017-Nov-14 10:30N 05°25' E 000°14'  
2017-Nov-10 17:24N 05°21' E 000°02'4 9.7
2017-Nov-10 17:01N 05°25' E 000°03'5 9.5
2017-Nov-10 16:30N 05°29' E 000°03'5 9.5
2017-Nov-10 16:01N 05°34' E 000°03'3 6.9
2017-Nov-10 15:31N 05°37' E 000°01'0 0.0
2017-Nov-10 15:01N 05°37' E 000°01'2 4.6
2017-Nov-10 14:31N 05°35' E 000°00'510.3
2017-Nov-10 14:00N 05°32' W 000°04'  
Track history (hours):
 
Tides and Currents Weather Stations Pressure Air Temp Water Temp Dewpoint Dewpoint Depression Visibility Wind Speed Wind Dir Waves Ship Positions

Ricouno

Last reported at 2017-Nov-18 15:52 UTC. Time now 2017-Nov-21 04:27 UTC.
Position N 05°16' W 000°05'.

Type: Fishing. MMSI: 627720000.

Date/timePositionNaut miles runAvg speedWind from/ knotsBaromVisibWave heightAir tempDewpointWater temp
2017-Nov-18 15:52N 05°16' W 000°05'3 9.5
2017-Nov-18 15:31N 05°19' W 000°05'5 9.3
2017-Nov-18 15:01N 05°24' W 000°03'5 9.3
2017-Nov-18 14:30N 05°28' W 000°02'5 9.3
2017-Nov-18 14:01N 05°33' W 000°00'5 9.2
2017-Nov-18 13:30N 05°37' E 000°02'0 0.8
2017-Nov-18 13:00N 05°37' E 000°02'0 0.0
2017-Nov-18 12:31N 05°37' E 000°02'0 0.0
2017-Nov-18 12:01N 05°37' E 000°02'0 0.0
2017-Nov-18 11:31N 05°37' E 000°02'0 0.0
2017-Nov-18 11:01N 05°37' E 000°02'0 0.0
2017-Nov-18 10:31N 05°37' E 000°02'0 0.0
2017-Nov-18 10:00N 05°37' E 000°02'0 0.0
2017-Nov-18 09:31N 05°37' E 000°02'4 8.4
2017-Nov-18 09:01N 05°38' E 000°06'4 7.4
2017-Nov-18 08:31N 05°41' E 000°09'1 1.0
2017-Nov-18 08:00N 05°41' E 000°08'0 0.5
2017-Nov-18 07:31N 05°41' E 000°08'3 6.0
2017-Nov-18 07:01N 05°39' E 000°05'0 0.7
2017-Nov-18 06:30N 05°39' E 000°05'0 0.8
2017-Nov-18 06:01N 05°39' E 000°05'2 3.1
2017-Nov-18 05:31N 05°39' E 000°07'2 4.3
2017-Nov-18 05:00N 05°39' E 000°09'0 0.0
2017-Nov-18 04:30N 05°39' E 000°09'0 0.0
2017-Nov-18 04:01N 05°39' E 000°09'0 0.0
2017-Nov-18 03:31N 05°39' E 000°09'0 0.0
2017-Nov-18 03:01N 05°39' E 000°09'0 0.0
2017-Nov-18 02:31N 05°39' E 000°09'0 0.0
2017-Nov-18 02:01N 05°39' E 000°09'0 0.0
2017-Nov-18 01:30N 05°39' E 000°09'0 0.0
2017-Nov-18 01:01N 05°39' E 000°09'0 0.0
2017-Nov-18 00:31N 05°39' E 000°09'0 0.0
2017-Nov-18 00:01N 05°39' E 000°09'0 0.0
2017-Nov-17 23:31N 05°39' E 000°09'0 0.0
2017-Nov-17 23:01N 05°39' E 000°09'0 0.6
2017-Nov-17 22:31N 05°39' E 000°09'6 9.6
2017-Nov-17 21:53N 05°37' E 000°15'  
2017-Nov-15 13:09N 05°24' E 000°21'210.8
2017-Nov-15 12:58N 05°24' E 000°19'510.8
2017-Nov-15 12:30N 05°24' E 000°14'510.9
2017-Nov-15 12:01N 05°23' E 000°09'510.9
2017-Nov-15 11:30N 05°23' E 000°03'610.9
2017-Nov-15 11:00N 05°22' W 000°02'610.8
2017-Nov-15 10:29N 05°22' W 000°08'6 0.4
2017-Nov-14 17:52N 05°26' W 000°12'3 9.3
2017-Nov-14 17:31N 05°27' W 000°09'5 9.2
2017-Nov-14 17:00N 05°31' W 000°05'4 8.9
2017-Nov-14 16:31N 05°33' W 000°02'4 9.0
2017-Nov-14 16:01N 05°37' E 000°01'1 1.4
2017-Nov-14 15:30N 05°37' E 000°02'0 0.0
2017-Nov-14 15:00N 05°37' E 000°02'0 0.0
2017-Nov-14 14:31N 05°37' E 000°02'0 0.0
2017-Nov-14 14:00N 05°37' E 000°02'0 0.0
2017-Nov-14 13:30N 05°37' E 000°02'0 0.0
2017-Nov-14 13:01N 05°37' E 000°02'0 0.3
2017-Nov-14 12:31N 05°37' E 000°02'3 5.5
2017-Nov-14 12:00N 05°36' E 000°04'5 9.7
2017-Nov-14 11:30N 05°32' E 000°07'5 9.5
2017-Nov-14 11:01N 05°28' E 000°10'5 9.6
2017-Nov-14 10:30N 05°25' E 000°14'  
2017-Nov-10 17:24N 05°21' E 000°02'4 9.7
2017-Nov-10 17:01N 05°25' E 000°03'5 9.5
2017-Nov-10 16:30N 05°29' E 000°03'5 9.5
2017-Nov-10 16:01N 05°34' E 000°03'3 6.9
2017-Nov-10 15:31N 05°37' E 000°01'0 0.0
2017-Nov-10 15:01N 05°37' E 000°01'2 4.6
2017-Nov-10 14:31N 05°35' E 000°00'510.3
2017-Nov-10 14:00N 05°32' W 000°04'  

Dump ship's entire track history